sensor_id;sensor_type;location;lat;lon;timestamp;pressure;altitude;pressure_sealevel;temperature;humidity
28911;BME280;16028;42.642;23.310;2023-04-20T00:00:32;93642.47;;;11.03;68.07
28911;BME280;16028;42.642;23.310;2023-04-20T00:02:59;93638.72;;;11.06;68.24
28911;BME280;16028;42.642;23.310;2023-04-20T00:05:28;93636.94;;;11.06;68.55
28911;BME280;16028;42.642;23.310;2023-04-20T00:07:57;93637.09;;;11.05;69.19
28911;BME280;16028;42.642;23.310;2023-04-20T00:10:24;93629.13;;;11.14;68.32
28911;BME280;16028;42.642;23.310;2023-04-20T00:12:51;93631.09;;;11.12;68.43
28911;BME280;16028;42.642;23.310;2023-04-20T00:15:17;93626.38;;;11.16;67.92
28911;BME280;16028;42.642;23.310;2023-04-20T00:17:44;93622.47;;;11.04;68.83
28911;BME280;16028;42.642;23.310;2023-04-20T00:20:12;93614.81;;;11.02;69.12
28911;BME280;16028;42.642;23.310;2023-04-20T00:22:39;93620.84;;;11.11;68.87
28911;BME280;16028;42.642;23.310;2023-04-20T00:25:08;93610.78;;;11.16;68.25
28911;BME280;16028;42.642;23.310;2023-04-20T00:27:35;93618.56;;;11.00;68.95
28911;BME280;16028;42.642;23.310;2023-04-20T00:30:02;93612.34;;;10.93;69.25
28911;BME280;16028;42.642;23.310;2023-04-20T00:32:29;93613.81;;;10.95;68.92
28911;BME280;16028;42.642;23.310;2023-04-20T00:34:56;93613.00;;;10.95;69.12
28911;BME280;16028;42.642;23.310;2023-04-20T00:37:22;93608.94;;;10.84;70.16
28911;BME280;16028;42.642;23.310;2023-04-20T00:39:50;93611.53;;;10.84;70.19
28911;BME280;16028;42.642;23.310;2023-04-20T00:42:18;93607.28;;;10.91;70.00
28911;BME280;16028;42.642;23.310;2023-04-20T00:44:45;93615.28;;;10.98;68.99
28911;BME280;16028;42.642;23.310;2023-04-20T00:47:11;93607.47;;;10.98;68.75
28911;BME280;16028;42.642;23.310;2023-04-20T00:49:38;93614.94;;;10.93;69.67
28911;BME280;16028;42.642;23.310;2023-04-20T00:52:05;93607.78;;;10.95;69.65
28911;BME280;16028;42.642;23.310;2023-04-20T00:54:32;93608.78;;;10.94;69.51
28911;BME280;16028;42.642;23.310;2023-04-20T00:56:59;93608.75;;;10.86;70.16
28911;BME280;16028;42.642;23.310;2023-04-20T00:59:28;93608.25;;;10.82;70.30
28911;BME280;16028;42.642;23.310;2023-04-20T01:01:56;93601.75;;;10.78;70.48
28911;BME280;16028;42.642;23.310;2023-04-20T01:04:23;93604.81;;;10.74;71.00
28911;BME280;16028;42.642;23.310;2023-04-20T01:06:50;93607.69;;;10.62;72.14
28911;BME280;16028;42.642;23.310;2023-04-20T01:09:16;93602.50;;;10.54;72.97
28911;BME280;16028;42.642;23.310;2023-04-20T01:11:43;93608.97;;;10.50;73.18
28911;BME280;16028;42.642;23.310;2023-04-20T01:14:10;93614.78;;;10.44;74.31
28911;BME280;16028;42.642;23.310;2023-04-20T01:16:38;93616.06;;;10.32;75.18
28911;BME280;16028;42.642;23.310;2023-04-20T01:19:05;93612.38;;;10.43;74.65
28911;BME280;16028;42.642;23.310;2023-04-20T01:21:31;93616.69;;;10.34;74.95
28911;BME280;16028;42.642;23.310;2023-04-20T01:24:00;93609.88;;;10.33;75.29
28911;BME280;16028;42.642;23.310;2023-04-20T01:26:26;93618.00;;;10.30;75.66
28911;BME280;16028;42.642;23.310;2023-04-20T01:28:53;93612.81;;;10.30;75.99
28911;BME280;16028;42.642;23.310;2023-04-20T01:31:20;93614.09;;;10.34;75.87
28911;BME280;16028;42.642;23.310;2023-04-20T01:33:47;93614.59;;;10.30;76.38
28911;BME280;16028;42.642;23.310;2023-04-20T01:36:14;93611.97;;;10.30;76.69
28911;BME280;16028;42.642;23.310;2023-04-20T01:38:41;93604.13;;;10.22;77.54
28911;BME280;16028;42.642;23.310;2023-04-20T01:41:09;93604.63;;;10.25;77.56
28911;BME280;16028;42.642;23.310;2023-04-20T01:43:37;93609.56;;;10.36;77.46
28911;BME280;16028;42.642;23.310;2023-04-20T01:46:04;93607.13;;;10.35;77.10
28911;BME280;16028;42.642;23.310;2023-04-20T01:48:31;93602.41;;;10.38;77.74
28911;BME280;16028;42.642;23.310;2023-04-20T01:50:58;93598.25;;;10.53;75.95
28911;BME280;16028;42.642;23.310;2023-04-20T01:53:25;93600.00;;;10.45;76.54
28911;BME280;16028;42.642;23.310;2023-04-20T01:55:53;93587.66;;;10.47;77.31
28911;BME280;16028;42.642;23.310;2023-04-20T01:58:21;93592.34;;;10.43;76.65
28911;BME280;16028;42.642;23.310;2023-04-20T02:00:48;93576.28;;;10.48;76.58
28911;BME280;16028;42.642;23.310;2023-04-20T02:03:14;93579.91;;;10.55;76.39
28911;BME280;16028;42.642;23.310;2023-04-20T02:05:41;93578.75;;;10.49;76.65
28911;BME280;16028;42.642;23.310;2023-04-20T02:08:08;93581.63;;;10.38;77.01
28911;BME280;16028;42.642;23.310;2023-04-20T02:10:35;93575.91;;;10.27;77.35
28911;BME280;16028;42.642;23.310;2023-04-20T02:13:02;93582.19;;;10.16;77.62
28911;BME280;16028;42.642;23.310;2023-04-20T02:15:30;93580.50;;;10.07;78.54
28911;BME280;16028;42.642;23.310;2023-04-20T02:17:57;93583.41;;;10.04;78.83
28911;BME280;16028;42.642;23.310;2023-04-20T02:20:24;93578.53;;;10.09;78.06
28911;BME280;16028;42.642;23.310;2023-04-20T02:22:51;93582.28;;;10.06;78.86
28911;BME280;16028;42.642;23.310;2023-04-20T02:25:18;93588.44;;;10.05;79.66
28911;BME280;16028;42.642;23.310;2023-04-20T02:27:44;93587.13;;;10.01;80.06
28911;BME280;16028;42.642;23.310;2023-04-20T02:30:12;93579.66;;;10.06;79.66
28911;BME280;16028;42.642;23.310;2023-04-20T02:32:40;93581.22;;;10.17;78.23
28911;BME280;16028;42.642;23.310;2023-04-20T02:35:07;93585.06;;;10.13;78.60
28911;BME280;16028;42.642;23.310;2023-04-20T02:37:34;93587.31;;;10.08;78.62
28911;BME280;16028;42.642;23.310;2023-04-20T02:40:01;93581.81;;;10.11;78.04
28911;BME280;16028;42.642;23.310;2023-04-20T02:42:29;93583.44;;;10.12;77.99
28911;BME280;16028;42.642;23.310;2023-04-20T02:44:55;93585.91;;;10.14;78.27
28911;BME280;16028;42.642;23.310;2023-04-20T02:47:22;93592.91;;;10.21;77.90
28911;BME280;16028;42.642;23.310;2023-04-20T02:49:50;93587.59;;;10.31;77.03
28911;BME280;16028;42.642;23.310;2023-04-20T02:52:17;93583.25;;;10.39;75.65
28911;BME280;16028;42.642;23.310;2023-04-20T02:54:44;93581.34;;;10.49;74.79
28911;BME280;16028;42.642;23.310;2023-04-20T02:57:11;93583.44;;;10.46;73.93
28911;BME280;16028;42.642;23.310;2023-04-20T02:59:38;93587.13;;;10.35;73.91
28911;BME280;16028;42.642;23.310;2023-04-20T03:02:05;93581.59;;;10.30;74.19
28911;BME280;16028;42.642;23.310;2023-04-20T03:04:32;93584.66;;;10.26;74.84
28911;BME280;16028;42.642;23.310;2023-04-20T03:07:00;93586.75;;;10.22;75.57
28911;BME280;16028;42.642;23.310;2023-04-20T03:09:28;93583.84;;;10.25;74.67
28911;BME280;16028;42.642;23.310;2023-04-20T03:11:54;93585.28;;;10.20;75.24
28911;BME280;16028;42.642;23.310;2023-04-20T03:14:22;93585.19;;;10.11;76.00
28911;BME280;16028;42.642;23.310;2023-04-20T03:16:48;93579.03;;;10.13;77.15
28911;BME280;16028;42.642;23.310;2023-04-20T03:19:15;93582.53;;;10.21;76.35
28911;BME280;16028;42.642;23.310;2023-04-20T03:21:43;93583.19;;;10.23;76.64
28911;BME280;16028;42.642;23.310;2023-04-20T03:24:11;93582.13;;;10.34;75.15
28911;BME280;16028;42.642;23.310;2023-04-20T03:26:38;93582.41;;;10.31;75.41
28911;BME280;16028;42.642;23.310;2023-04-20T03:29:05;93577.38;;;10.29;74.29
28911;BME280;16028;42.642;23.310;2023-04-20T03:31:32;93580.81;;;10.38;72.52
28911;BME280;16028;42.642;23.310;2023-04-20T03:33:59;93583.59;;;10.44;70.97
28911;BME280;16028;42.642;23.310;2023-04-20T03:36:26;93584.13;;;10.56;70.33
28911;BME280;16028;42.642;23.310;2023-04-20T03:38:53;93584.47;;;10.61;69.99
28911;BME280;16028;42.642;23.310;2023-04-20T03:41:21;93590.81;;;10.58;69.76
28911;BME280;16028;42.642;23.310;2023-04-20T03:43:48;93590.44;;;10.53;69.88
28911;BME280;16028;42.642;23.310;2023-04-20T03:46:15;93589.94;;;10.50;72.09
28911;BME280;16028;42.642;23.310;2023-04-20T03:48:42;93588.22;;;10.67;71.17
28911;BME280;16028;42.642;23.310;2023-04-20T03:51:08;93587.06;;;10.61;70.83
28911;BME280;16028;42.642;23.310;2023-04-20T03:53:35;93588.72;;;10.62;70.79
28911;BME280;16028;42.642;23.310;2023-04-20T03:56:02;93592.44;;;10.68;71.06
28911;BME280;16028;42.642;23.310;2023-04-20T03:58:31;93590.03;;;10.74;70.88
28911;BME280;16028;42.642;23.310;2023-04-20T04:01:01;93585.97;;;10.72;71.08
28911;BME280;16028;42.642;23.310;2023-04-20T04:03:28;93589.22;;;10.74;71.47
28911;BME280;16028;42.642;23.310;2023-04-20T04:05:55;93588.41;;;10.73;71.17
28911;BME280;16028;42.642;23.310;2023-04-20T04:08:22;93594.56;;;10.72;71.64
28911;BME280;16028;42.642;23.310;2023-04-20T04:10:48;93598.97;;;10.80;71.74
28911;BME280;16028;42.642;23.310;2023-04-20T04:13:15;93595.06;;;10.76;72.13
28911;BME280;16028;42.642;23.310;2023-04-20T04:15:43;93594.28;;;10.83;72.02
28911;BME280;16028;42.642;23.310;2023-04-20T04:18:10;93598.34;;;10.78;72.54
28911;BME280;16028;42.642;23.310;2023-04-20T04:20:37;93609.38;;;10.80;72.90
28911;BME280;16028;42.642;23.310;2023-04-20T04:23:04;93602.88;;;10.76;73.42
28911;BME280;16028;42.642;23.310;2023-04-20T04:25:31;93604.19;;;10.80;73.08
28911;BME280;16028;42.642;23.310;2023-04-20T04:27:57;93609.06;;;10.75;73.47
28911;BME280;16028;42.642;23.310;2023-04-20T04:30:25;93599.81;;;10.80;73.40
28911;BME280;16028;42.642;23.310;2023-04-20T04:32:53;93605.47;;;10.76;73.68
28911;BME280;16028;42.642;23.310;2023-04-20T04:35:20;93592.81;;;10.81;73.29
28911;BME280;16028;42.642;23.310;2023-04-20T04:37:46;93598.84;;;10.81;73.19
28911;BME280;16028;42.642;23.310;2023-04-20T04:40:13;93600.94;;;10.78;73.34
28911;BME280;16028;42.642;23.310;2023-04-20T04:42:40;93602.53;;;10.79;73.36
28911;BME280;16028;42.642;23.310;2023-04-20T04:45:08;93612.00;;;10.80;73.84
28911;BME280;16028;42.642;23.310;2023-04-20T04:47:35;93613.44;;;10.74;72.78
28911;BME280;16028;42.642;23.310;2023-04-20T04:50:04;93611.97;;;10.72;73.36
28911;BME280;16028;42.642;23.310;2023-04-20T04:52:31;93613.75;;;10.71;73.84
28911;BME280;16028;42.642;23.310;2023-04-20T04:54:58;93626.13;;;10.77;74.16
28911;BME280;16028;42.642;23.310;2023-04-20T04:57:25;93625.63;;;10.74;74.21
28911;BME280;16028;42.642;23.310;2023-04-20T04:59:52;93624.66;;;10.75;73.47
28911;BME280;16028;42.642;23.310;2023-04-20T05:02:19;93619.94;;;10.70;73.38
28911;BME280;16028;42.642;23.310;2023-04-20T05:04:46;93624.81;;;10.73;73.60
28911;BME280;16028;42.642;23.310;2023-04-20T05:07:14;93624.00;;;10.73;74.02
28911;BME280;16028;42.642;23.310;2023-04-20T05:09:41;93637.00;;;10.73;74.31
28911;BME280;16028;42.642;23.310;2023-04-20T05:12:08;93628.56;;;10.71;73.48
28911;BME280;16028;42.642;23.310;2023-04-20T05:14:35;93633.56;;;10.72;73.83
28911;BME280;16028;42.642;23.310;2023-04-20T05:17:03;93623.66;;;10.68;73.92
28911;BME280;16028;42.642;23.310;2023-04-20T05:19:30;93623.34;;;10.71;74.55
28911;BME280;16028;42.642;23.310;2023-04-20T05:21:56;93625.63;;;10.74;74.56
28911;BME280;16028;42.642;23.310;2023-04-20T05:24:25;93625.00;;;10.80;74.10
28911;BME280;16028;42.642;23.310;2023-04-20T05:26:51;93630.00;;;10.73;74.46
28911;BME280;16028;42.642;23.310;2023-04-20T05:29:18;93630.19;;;10.72;74.99
28911;BME280;16028;42.642;23.310;2023-04-20T05:31:45;93628.56;;;10.79;74.77
28911;BME280;16028;42.642;23.310;2023-04-20T05:34:12;93631.19;;;10.87;74.64
28911;BME280;16028;42.642;23.310;2023-04-20T05:36:39;93641.44;;;10.80;75.18
28911;BME280;16028;42.642;23.310;2023-04-20T05:39:06;93634.94;;;10.92;74.79
28911;BME280;16028;42.642;23.310;2023-04-20T05:41:34;93639.66;;;10.89;75.07
28911;BME280;16028;42.642;23.310;2023-04-20T05:44:01;93635.78;;;10.93;75.09
28911;BME280;16028;42.642;23.310;2023-04-20T05:46:27;93633.81;;;10.87;75.61
28911;BME280;16028;42.642;23.310;2023-04-20T05:48:54;93628.91;;;10.84;76.29
28911;BME280;16028;42.642;23.310;2023-04-20T05:51:21;93641.25;;;10.74;77.75
28911;BME280;16028;42.642;23.310;2023-04-20T05:53:50;93640.41;;;10.73;78.66
28911;BME280;16028;42.642;23.310;2023-04-20T05:56:16;93640.09;;;10.68;79.96
28911;BME280;16028;42.642;23.310;2023-04-20T05:58:45;93634.91;;;10.76;79.11
28911;BME280;16028;42.642;23.310;2023-04-20T06:01:12;93644.34;;;10.77;79.87
28911;BME280;16028;42.642;23.310;2023-04-20T06:03:38;93633.63;;;10.80;78.71
28911;BME280;16028;42.642;23.310;2023-04-20T06:06:06;93633.13;;;10.77;78.51
28911;BME280;16028;42.642;23.310;2023-04-20T06:08:32;93634.91;;;10.76;78.43
28911;BME280;16028;42.642;23.310;2023-04-20T06:10:59;93637.50;;;10.68;79.30
28911;BME280;16028;42.642;23.310;2023-04-20T06:13:26;93644.63;;;10.66;80.04
28911;BME280;16028;42.642;23.310;2023-04-20T06:15:55;93645.09;;;10.61;81.12
28911;BME280;16028;42.642;23.310;2023-04-20T06:18:21;93644.59;;;10.58;82.36
28911;BME280;16028;42.642;23.310;2023-04-20T06:20:48;93635.97;;;10.49;83.08
28911;BME280;16028;42.642;23.310;2023-04-20T06:23:15;93635.66;;;10.52;83.83
28911;BME280;16028;42.642;23.310;2023-04-20T06:25:42;93644.56;;;10.50;83.20
28911;BME280;16028;42.642;23.310;2023-04-20T06:28:09;93649.59;;;10.51;83.54
28911;BME280;16028;42.642;23.310;2023-04-20T06:30:36;93648.03;;;10.58;83.00
28911;BME280;16028;42.642;23.310;2023-04-20T06:33:04;93647.03;;;10.59;83.27
28911;BME280;16028;42.642;23.310;2023-04-20T06:35:31;93646.56;;;10.64;83.41
28911;BME280;16028;42.642;23.310;2023-04-20T06:37:58;93643.53;;;10.77;81.03
28911;BME280;16028;42.642;23.310;2023-04-20T06:40:27;93651.00;;;10.80;80.57
28911;BME280;16028;42.642;23.310;2023-04-20T06:42:54;93654.56;;;10.71;80.26
28911;BME280;16028;42.642;23.310;2023-04-20T06:45:21;93645.16;;;10.78;79.81
28911;BME280;16028;42.642;23.310;2023-04-20T06:47:47;93653.78;;;10.78;80.89
28911;BME280;16028;42.642;23.310;2023-04-20T06:50:15;93657.88;;;10.89;80.15
28911;BME280;16028;42.642;23.310;2023-04-20T06:52:42;93655.59;;;10.86;79.72
28911;BME280;16028;42.642;23.310;2023-04-20T06:55:09;93660.97;;;10.92;79.70
28911;BME280;16028;42.642;23.310;2023-04-20T06:57:37;93655.63;;;10.94;79.06
28911;BME280;16028;42.642;23.310;2023-04-20T07:00:06;93669.59;;;10.85;78.79
28911;BME280;16028;42.642;23.310;2023-04-20T07:02:52;93665.16;;;10.85;79.04
28911;BME280;16028;42.642;23.310;2023-04-20T07:05:20;93666.00;;;10.86;80.83
28911;BME280;16028;42.642;23.310;2023-04-20T07:07:46;93677.03;;;10.80;81.46
28911;BME280;16028;42.642;23.310;2023-04-20T07:10:14;93678.81;;;10.79;82.26
28911;BME280;16028;42.642;23.310;2023-04-20T07:12:41;93671.81;;;10.80;81.29
28911;BME280;16028;42.642;23.310;2023-04-20T07:15:09;93671.38;;;10.84;80.29
28911;BME280;16028;42.642;23.310;2023-04-20T07:17:36;93676.38;;;10.78;79.26
28911;BME280;16028;42.642;23.310;2023-04-20T07:20:07;93675.69;;;10.76;79.95
28911;BME280;16028;42.642;23.310;2023-04-20T07:22:36;93678.66;;;10.81;80.51
28911;BME280;16028;42.642;23.310;2023-04-20T07:25:05;93664.91;;;10.96;79.39
28911;BME280;16028;42.642;23.310;2023-04-20T07:27:33;93663.28;;;11.03;77.73
28911;BME280;16028;42.642;23.310;2023-04-20T07:30:01;93678.69;;;10.89;77.59
28911;BME280;16028;42.642;23.310;2023-04-20T07:32:28;93675.63;;;10.93;79.43
28911;BME280;16028;42.642;23.310;2023-04-20T07:34:54;93665.09;;;11.11;78.37
28911;BME280;16028;42.642;23.310;2023-04-20T07:37:21;93668.53;;;11.20;77.16
28911;BME280;16028;42.642;23.310;2023-04-20T07:39:51;93660.72;;;11.28;77.82
28911;BME280;16028;42.642;23.310;2023-04-20T07:42:18;93658.31;;;11.34;75.83
28911;BME280;16028;42.642;23.310;2023-04-20T07:44:45;93673.28;;;11.40;76.88
28911;BME280;16028;42.642;23.310;2023-04-20T07:47:12;93667.44;;;11.54;76.54
28911;BME280;16028;42.642;23.310;2023-04-20T07:49:39;93658.66;;;11.72;75.08
28911;BME280;16028;42.642;23.310;2023-04-20T07:52:06;93658.97;;;11.68;72.66
28911;BME280;16028;42.642;23.310;2023-04-20T07:54:33;93668.25;;;11.63;73.18
28911;BME280;16028;42.642;23.310;2023-04-20T07:57:01;93665.16;;;11.59;73.37
28911;BME280;16028;42.642;23.310;2023-04-20T07:59:28;93653.44;;;11.55;73.78
28911;BME280;16028;42.642;23.310;2023-04-20T08:01:57;93668.09;;;11.56;74.06
28911;BME280;16028;42.642;23.310;2023-04-20T08:04:25;93656.69;;;11.65;73.49
28911;BME280;16028;42.642;23.310;2023-04-20T08:06:52;93666.00;;;11.76;73.00
28911;BME280;16028;42.642;23.310;2023-04-20T08:09:19;93667.50;;;11.87;72.29
28911;BME280;16028;42.642;23.310;2023-04-20T08:11:46;93665.66;;;11.87;71.57
28911;BME280;16028;42.642;23.310;2023-04-20T08:14:14;93674.66;;;11.93;71.70
28911;BME280;16028;42.642;23.310;2023-04-20T08:16:41;93665.03;;;12.01;72.13
28911;BME280;16028;42.642;23.310;2023-04-20T08:19:08;93670.22;;;12.17;71.32
28911;BME280;16028;42.642;23.310;2023-04-20T08:21:35;93664.81;;;12.19;71.74
28911;BME280;16028;42.642;23.310;2023-04-20T08:24:02;93669.41;;;12.17;71.49
28911;BME280;16028;42.642;23.310;2023-04-20T08:26:30;93671.19;;;12.25;71.40
28911;BME280;16028;42.642;23.310;2023-04-20T08:28:57;93672.31;;;12.22;70.93
28911;BME280;16028;42.642;23.310;2023-04-20T08:31:25;93673.31;;;12.21;71.30
28911;BME280;16028;42.642;23.310;2023-04-20T08:33:52;93674.13;;;12.13;71.61
28911;BME280;16028;42.642;23.310;2023-04-20T08:36:19;93669.25;;;12.18;71.78
28911;BME280;16028;42.642;23.310;2023-04-20T08:38:52;93663.88;;;12.12;71.34
28911;BME280;16028;42.642;23.310;2023-04-20T08:41:19;93674.13;;;11.97;72.12
28911;BME280;16028;42.642;23.310;2023-04-20T08:43:45;93666.00;;;12.08;72.65
28911;BME280;16028;42.642;23.310;2023-04-20T08:46:14;93673.66;;;12.02;72.64
28911;BME280;16028;42.642;23.310;2023-04-20T08:48:45;93679.34;;;11.97;72.80
28911;BME280;16028;42.642;23.310;2023-04-20T08:51:14;93683.91;;;12.11;72.20
28911;BME280;16028;42.642;23.310;2023-04-20T08:53:41;93681.13;;;12.21;72.42
28911;BME280;16028;42.642;23.310;2023-04-20T08:56:08;93690.38;;;12.32;72.42
28911;BME280;16028;42.642;23.310;2023-04-20T08:58:35;93680.09;;;12.46;71.19
28911;BME280;16028;42.642;23.310;2023-04-20T09:01:03;93687.28;;;12.44;70.24
28911;BME280;16028;42.642;23.310;2023-04-20T09:03:31;93680.09;;;12.38;71.08
28911;BME280;16028;42.642;23.310;2023-04-20T09:06:00;93683.41;;;12.24;71.08
28911;BME280;16028;42.642;23.310;2023-04-20T09:08:34;93684.72;;;12.20;72.14
28911;BME280;16028;42.642;23.310;2023-04-20T09:11:01;93688.28;;;12.19;71.97
28911;BME280;16028;42.642;23.310;2023-04-20T09:13:28;93689.28;;;12.18;71.31
28911;BME280;16028;42.642;23.310;2023-04-20T09:15:54;93688.94;;;12.13;71.00
28911;BME280;16028;42.642;23.310;2023-04-20T09:18:22;93693.69;;;12.09;71.54
28911;BME280;16028;42.642;23.310;2023-04-20T09:20:49;93692.53;;;12.04;72.83
28911;BME280;16028;42.642;23.310;2023-04-20T09:23:19;93686.84;;;12.08;73.03
28911;BME280;16028;42.642;23.310;2023-04-20T09:25:49;93680.47;;;12.19;72.63
28911;BME280;16028;42.642;23.310;2023-04-20T09:28:18;93685.03;;;12.25;72.81
28911;BME280;16028;42.642;23.310;2023-04-20T09:30:46;93675.06;;;12.37;71.64
28911;BME280;16028;42.642;23.310;2023-04-20T09:33:15;93665.09;;;12.48;70.91
28911;BME280;16028;42.642;23.310;2023-04-20T09:35:44;93671.13;;;12.49;71.53
28911;BME280;16028;42.642;23.310;2023-04-20T09:38:15;93672.22;;;12.62;71.24
28911;BME280;16028;42.642;23.310;2023-04-20T09:40:43;93667.59;;;12.81;70.07
28911;BME280;16028;42.642;23.310;2023-04-20T09:43:17;93669.75;;;12.69;70.41
28911;BME280;16028;42.642;23.310;2023-04-20T09:45:44;93669.22;;;12.82;69.90
28911;BME280;16028;42.642;23.310;2023-04-20T09:48:11;93659.75;;;12.81;70.46
28911;BME280;16028;42.642;23.310;2023-04-20T09:50:43;93667.72;;;12.87;70.03
28911;BME280;16028;42.642;23.310;2023-04-20T09:53:12;93660.72;;;12.88;69.85
28911;BME280;16028;42.642;23.310;2023-04-20T09:55:44;93657.56;;;13.00;69.13
28911;BME280;16028;42.642;23.310;2023-04-20T09:58:12;93656.72;;;13.08;70.12
28911;BME280;16028;42.642;23.310;2023-04-20T10:00:40;93657.09;;;13.27;69.66
28911;BME280;16028;42.642;23.310;2023-04-20T10:03:08;93655.88;;;13.46;68.15
28911;BME280;16028;42.642;23.310;2023-04-20T10:05:35;93658.25;;;13.56;67.08
28911;BME280;16028;42.642;23.310;2023-04-20T10:08:04;93649.03;;;13.60;67.20
28911;BME280;16028;42.642;23.310;2023-04-20T10:10:44;93641.66;;;13.63;64.89
28911;BME280;16028;42.642;23.310;2023-04-20T10:13:11;93646.66;;;13.73;66.75
28911;BME280;16028;42.642;23.310;2023-04-20T10:15:39;93639.91;;;13.78;66.48
28911;BME280;16028;42.642;23.310;2023-04-20T10:18:16;93635.56;;;13.94;65.41
28911;BME280;16028;42.642;23.310;2023-04-20T10:20:43;93637.16;;;13.95;65.06
28911;BME280;16028;42.642;23.310;2023-04-20T10:23:10;93634.84;;;14.00;64.49
28911;BME280;16028;42.642;23.310;2023-04-20T10:25:39;93647.72;;;14.01;64.39
28911;BME280;16028;42.642;23.310;2023-04-20T10:28:08;93637.06;;;13.88;65.98
28911;BME280;16028;42.642;23.310;2023-04-20T10:30:36;93639.31;;;13.91;65.43
28911;BME280;16028;42.642;23.310;2023-04-20T10:33:04;93639.31;;;13.91;63.01
28911;BME280;16028;42.642;23.310;2023-04-20T10:35:41;93634.84;;;14.00;64.26
28911;BME280;16028;42.642;23.310;2023-04-20T10:38:08;93632.69;;;14.03;64.49
28911;BME280;16028;42.642;23.310;2023-04-20T10:40:36;93630.44;;;14.15;63.49
28911;BME280;16028;42.642;23.310;2023-04-20T10:43:02;93633.88;;;14.15;61.99
28911;BME280;16028;42.642;23.310;2023-04-20T10:45:34;93627.81;;;14.15;65.15
28911;BME280;16028;42.642;23.310;2023-04-20T10:48:07;93627.56;;;14.24;64.56
28911;BME280;16028;42.642;23.310;2023-04-20T10:50:34;93627.03;;;14.29;62.74
28911;BME280;16028;42.642;23.310;2023-04-20T10:53:02;93621.75;;;14.37;65.60
28911;BME280;16028;42.642;23.310;2023-04-20T10:55:29;93625.34;;;14.36;63.47
28911;BME280;16028;42.642;23.310;2023-04-20T10:57:56;93630.78;;;14.35;65.59
28911;BME280;16028;42.642;23.310;2023-04-20T11:00:25;93625.09;;;14.46;66.72
28911;BME280;16028;42.642;23.310;2023-04-20T11:02:55;93620.22;;;14.72;63.59
28911;BME280;16028;42.642;23.310;2023-04-20T11:05:24;93616.69;;;14.79;66.27
28911;BME280;16028;42.642;23.310;2023-04-20T11:07:52;93612.75;;;14.90;62.08
28911;BME280;16028;42.642;23.310;2023-04-20T11:10:19;93610.34;;;14.89;58.18
28911;BME280;16028;42.642;23.310;2023-04-20T11:12:46;93609.25;;;14.98;63.93
28911;BME280;16028;42.642;23.310;2023-04-20T11:15:13;93618.25;;;15.10;63.02
28911;BME280;16028;42.642;23.310;2023-04-20T11:17:40;93609.28;;;15.19;64.21
28911;BME280;16028;42.642;23.310;2023-04-20T11:20:11;93606.31;;;15.22;61.78
28911;BME280;16028;42.642;23.310;2023-04-20T11:22:40;93599.22;;;15.22;60.55
28911;BME280;16028;42.642;23.310;2023-04-20T11:25:08;93602.25;;;15.41;62.31
28911;BME280;16028;42.642;23.310;2023-04-20T11:27:36;93605.66;;;15.56;59.37
28911;BME280;16028;42.642;23.310;2023-04-20T11:30:05;93606.91;;;15.60;58.42
28911;BME280;16028;42.642;23.310;2023-04-20T11:32:33;93605.22;;;15.52;56.25
28911;BME280;16028;42.642;23.310;2023-04-20T11:35:01;93599.66;;;15.41;56.07
28911;BME280;16028;42.642;23.310;2023-04-20T11:37:33;93597.06;;;15.26;57.39
28911;BME280;16028;42.642;23.310;2023-04-20T11:40:11;93597.31;;;15.31;56.22
28911;BME280;16028;42.642;23.310;2023-04-20T11:42:39;93608.81;;;15.30;56.76
28911;BME280;16028;42.642;23.310;2023-04-20T11:45:06;93599.31;;;15.29;55.32
28911;BME280;16028;42.642;23.310;2023-04-20T11:47:36;93597.03;;;15.41;56.57
28911;BME280;16028;42.642;23.310;2023-04-20T11:50:05;93595.13;;;15.49;57.32
28911;BME280;16028;42.642;23.310;2023-04-20T11:52:34;93592.94;;;15.53;55.01
28911;BME280;16028;42.642;23.310;2023-04-20T11:55:01;93589.22;;;15.47;55.16
28911;BME280;16028;42.642;23.310;2023-04-20T11:57:28;93590.38;;;15.59;54.48
28911;BME280;16028;42.642;23.310;2023-04-20T11:59:54;93598.41;;;15.58;54.97
28911;BME280;16028;42.642;23.310;2023-04-20T12:02:21;93600.84;;;15.59;55.14
28911;BME280;16028;42.642;23.310;2023-04-20T12:04:48;93590.69;;;15.50;56.66
28911;BME280;16028;42.642;23.310;2023-04-20T12:07:14;93584.59;;;15.28;55.72
28911;BME280;16028;42.642;23.310;2023-04-20T12:09:42;93596.81;;;15.21;56.98
28911;BME280;16028;42.642;23.310;2023-04-20T12:12:09;93589.31;;;15.18;57.95
28911;BME280;16028;42.642;23.310;2023-04-20T12:14:36;93582.97;;;15.27;56.34
28911;BME280;16028;42.642;23.310;2023-04-20T12:17:03;93589.34;;;15.39;55.71
28911;BME280;16028;42.642;23.310;2023-04-20T12:19:30;93595.75;;;15.36;55.77
28911;BME280;16028;42.642;23.310;2023-04-20T12:21:57;93592.53;;;15.34;54.90
28911;BME280;16028;42.642;23.310;2023-04-20T12:24:24;93595.16;;;15.34;57.57
28911;BME280;16028;42.642;23.310;2023-04-20T12:26:52;93601.28;;;15.06;58.86
28911;BME280;16028;42.642;23.310;2023-04-20T12:29:19;93600.97;;;14.65;60.23
28911;BME280;16028;42.642;23.310;2023-04-20T12:31:46;93598.72;;;14.32;64.01
28911;BME280;16028;42.642;23.310;2023-04-20T12:34:12;93603.38;;;14.08;67.67
28911;BME280;16028;42.642;23.310;2023-04-20T12:36:39;93602.09;;;13.89;69.96
28911;BME280;16028;42.642;23.310;2023-04-20T12:39:06;93592.84;;;13.78;71.35
28911;BME280;16028;42.642;23.310;2023-04-20T12:41:32;93598.53;;;13.67;71.06
28911;BME280;16028;42.642;23.310;2023-04-20T12:44:01;93581.31;;;13.73;72.67
28911;BME280;16028;42.642;23.310;2023-04-20T12:46:28;93588.63;;;13.77;71.62
28911;BME280;16028;42.642;23.310;2023-04-20T12:48:55;93577.72;;;13.89;72.27
28911;BME280;16028;42.642;23.310;2023-04-20T12:51:21;93583.09;;;14.10;71.15